createdAt,value
2022-12-17T00:00:03.499Z,1004.72
2022-12-17T00:05:03.260Z,1004.72
2022-12-17T00:10:03.518Z,1004.77
2022-12-17T00:15:03.097Z,1004.76
2022-12-17T00:20:03.425Z,1004.8
2022-12-17T00:25:03.200Z,1004.85
2022-12-17T00:30:03.290Z,1004.97
2022-12-17T00:35:03.123Z,1005.02
2022-12-17T00:40:03.661Z,1005.0
2022-12-17T00:45:03.223Z,1005.04
2022-12-17T00:50:03.473Z,1005.1
2022-12-17T00:55:03.206Z,1005.14
2022-12-17T01:00:03.449Z,1005.24
2022-12-17T01:05:03.161Z,1005.29
2022-12-17T01:10:03.357Z,1005.33
2022-12-17T01:15:03.114Z,1005.36
2022-12-17T01:20:03.407Z,1005.39
2022-12-17T01:25:03.219Z,1005.38
2022-12-17T01:30:03.617Z,1005.27
2022-12-17T01:35:03.241Z,1005.17
2022-12-17T01:40:03.419Z,1005.09
2022-12-17T01:45:03.144Z,1005.06
2022-12-17T01:50:03.375Z,1005.08
2022-12-17T01:55:03.185Z,1005.08
2022-12-17T02:00:03.438Z,1004.97
2022-12-17T02:05:03.188Z,1004.96
2022-12-17T02:10:03.358Z,1004.9
2022-12-17T02:15:03.100Z,1004.95
2022-12-17T02:20:03.451Z,1004.97
2022-12-17T02:25:03.189Z,1004.95
2022-12-17T02:30:03.428Z,1004.84
2022-12-17T02:35:03.268Z,1004.81
2022-12-17T02:40:03.359Z,1004.83
2022-12-17T02:45:03.156Z,1004.87
2022-12-17T02:50:03.392Z,1004.85
2022-12-17T02:55:03.108Z,1004.9
2022-12-17T03:00:03.489Z,1004.98
2022-12-17T03:05:21.357Z,1005.08
2022-12-17T03:10:03.513Z,1005.09
2022-12-17T03:15:04.106Z,1005.07
2022-12-17T03:20:03.384Z,1004.99
2022-12-17T03:25:03.148Z,1004.98
2022-12-17T03:30:03.461Z,1004.94
2022-12-17T03:35:03.172Z,1004.97
2022-12-17T03:40:03.297Z,1004.95
2022-12-17T03:45:03.103Z,1004.92
2022-12-17T03:50:03.438Z,1004.82
2022-12-17T03:55:03.224Z,1004.84
2022-12-17T04:00:03.361Z,1004.78
2022-12-17T04:05:03.194Z,1004.73
2022-12-17T04:10:06.089Z,1004.71
2022-12-17T04:15:03.114Z,1004.67
2022-12-17T04:20:03.494Z,1004.63
2022-12-17T04:25:03.126Z,1004.7
2022-12-17T04:30:03.467Z,1004.68
2022-12-17T04:35:03.131Z,1004.62
2022-12-17T04:40:03.424Z,1004.59
2022-12-17T04:45:03.052Z,1004.61
2022-12-17T04:50:03.459Z,1004.55
2022-12-17T04:55:03.110Z,1004.49
2022-12-17T05:00:03.394Z,1004.48
2022-12-17T05:05:03.193Z,1004.49
2022-12-17T05:10:03.464Z,1004.57
2022-12-17T05:15:04.345Z,1004.62
2022-12-17T05:20:03.319Z,1004.55
2022-12-17T05:25:03.264Z,1004.51
2022-12-17T05:30:03.331Z,1004.53
2022-12-17T05:35:03.168Z,1004.46
2022-12-17T05:40:06.648Z,1004.38
2022-12-17T05:45:03.254Z,1004.37
2022-12-17T05:50:03.389Z,1004.33
2022-12-17T05:55:03.303Z,1004.23
2022-12-17T06:00:03.445Z,1004.26
2022-12-17T06:05:03.136Z,1004.21
2022-12-17T06:10:03.262Z,1004.16
2022-12-17T06:15:03.062Z,1004.12
2022-12-17T06:20:03.421Z,1004.12
2022-12-17T06:25:04.106Z,1004.04
2022-12-17T06:30:03.398Z,1004.06
2022-12-17T06:35:03.196Z,1004.03
2022-12-17T06:40:03.496Z,1004.07
2022-12-17T06:45:03.066Z,1004.04
2022-12-17T06:50:03.257Z,1004.07
2022-12-17T06:55:03.068Z,1004.07
2022-12-17T07:00:03.492Z,1004.11
2022-12-17T07:05:03.133Z,1004.11
2022-12-17T07:10:03.256Z,1004.11
2022-12-17T07:15:03.198Z,1004.14
2022-12-17T07:20:03.426Z,1004.2
2022-12-17T07:25:03.138Z,1004.25
2022-12-17T07:30:03.705Z,1004.27
2022-12-17T07:35:03.073Z,1004.26
2022-12-17T07:40:03.569Z,1004.31
2022-12-17T07:45:03.180Z,1004.49
2022-12-17T07:50:03.442Z,1004.56
2022-12-17T07:55:03.119Z,1004.64
2022-12-17T08:00:03.770Z,1004.75
2022-12-17T08:05:03.145Z,1004.81
2022-12-17T08:10:03.447Z,1004.92
2022-12-17T08:15:03.112Z,1005.02
2022-12-17T08:20:03.371Z,1005.0
2022-12-17T08:25:03.136Z,1005.11
2022-12-17T08:30:03.455Z,1005.17
2022-12-17T08:35:03.240Z,1005.23
2022-12-17T08:40:03.454Z,1005.39
2022-12-17T08:45:03.060Z,1005.49
2022-12-17T08:50:03.332Z,1005.52
2022-12-17T08:55:03.130Z,1005.56
2022-12-17T09:00:03.413Z,1005.65
2022-12-17T09:05:03.138Z,1005.7
2022-12-17T09:10:03.463Z,1005.75
2022-12-17T09:15:03.142Z,1005.9
2022-12-17T09:20:03.306Z,1005.96
2022-12-17T09:25:03.125Z,1006.05
2022-12-17T09:30:03.896Z,1006.1
2022-12-17T09:35:03.157Z,1006.18
2022-12-17T09:40:03.497Z,1006.25
2022-12-17T09:45:03.272Z,1006.3
2022-12-17T09:50:08.384Z,1006.28
2022-12-17T09:55:03.115Z,1006.24
2022-12-17T10:00:03.543Z,1006.27
2022-12-17T10:05:03.124Z,1006.35
2022-12-17T10:10:03.539Z,1006.43
2022-12-17T10:15:03.132Z,1006.38
2022-12-17T10:20:03.413Z,1006.41
2022-12-17T10:25:03.091Z,1006.6
2022-12-17T10:30:03.441Z,1006.6
2022-12-17T10:35:05.420Z,1006.63
2022-12-17T10:40:03.212Z,1006.62
2022-12-17T10:45:03.030Z,1006.62
2022-12-17T10:50:03.345Z,1006.61
2022-12-17T10:55:03.122Z,1006.67
2022-12-17T11:00:03.398Z,1006.69
2022-12-17T11:05:03.200Z,1006.73
2022-12-17T11:10:08.914Z,1006.72
2022-12-17T11:15:03.100Z,1006.81
2022-12-17T11:20:03.387Z,1006.87
2022-12-17T11:25:03.117Z,1006.9
2022-12-17T11:30:03.394Z,1006.9
2022-12-17T11:35:03.130Z,1006.98
2022-12-17T11:40:03.590Z,1007.0
2022-12-17T11:45:03.323Z,1007.1
2022-12-17T11:50:03.490Z,1007.06
2022-12-17T11:55:03.095Z,1007.06
2022-12-17T12:00:04.461Z,1007.02
2022-12-17T12:05:08.179Z,1007.04
2022-12-17T12:10:03.326Z,1007.1
2022-12-17T12:15:03.175Z,1007.13
2022-12-17T12:20:03.297Z,1007.17
2022-12-17T12:25:03.145Z,1007.22
2022-12-17T12:30:03.478Z,1007.25
2022-12-17T12:35:03.144Z,1007.29
2022-12-17T12:40:03.469Z,1007.3
2022-12-17T12:45:03.156Z,1007.35
2022-12-17T12:50:03.272Z,1007.37
2022-12-17T12:55:03.120Z,1007.37
2022-12-17T13:00:03.420Z,1007.4
2022-12-17T13:05:03.164Z,1007.38
2022-12-17T13:10:03.403Z,1007.37
2022-12-17T13:15:03.186Z,1007.36
2022-12-17T13:20:03.405Z,1007.38
2022-12-17T13:25:03.088Z,1007.36
2022-12-17T13:30:03.435Z,1007.41
2022-12-17T13:35:07.018Z,1007.34
2022-12-17T13:40:03.426Z,1007.25
2022-12-17T13:45:03.132Z,1007.19
2022-12-17T13:50:32.547Z,1007.18
2022-12-17T13:55:03.153Z,1007.12
2022-12-17T14:00:03.426Z,1007.08
2022-12-17T14:05:07.619Z,1007.02
2022-12-17T14:10:03.441Z,1006.99
2022-12-17T14:15:04.203Z,1006.91
2022-12-17T14:20:03.401Z,1006.91
2022-12-17T14:25:03.189Z,1006.89
2022-12-17T14:30:03.468Z,1006.88
2022-12-17T14:35:03.164Z,1006.83
2022-12-17T14:40:03.510Z,1006.77
2022-12-17T14:45:03.153Z,1006.69
2022-12-17T14:50:03.447Z,1006.75
2022-12-17T14:55:03.183Z,1006.76
2022-12-17T15:00:03.501Z,1006.8
2022-12-17T15:05:03.107Z,1006.77
2022-12-17T15:10:03.502Z,1006.76
2022-12-17T15:15:03.190Z,1006.71
2022-12-17T15:20:03.376Z,1006.73
2022-12-17T15:25:03.142Z,1006.7
2022-12-17T15:30:03.436Z,1006.64
2022-12-17T15:35:03.137Z,1006.53
2022-12-17T15:40:03.519Z,1006.45
2022-12-17T15:45:03.529Z,1006.43
2022-12-17T15:50:03.517Z,1006.38
2022-12-17T15:55:03.142Z,1006.39
2022-12-17T16:00:03.488Z,1006.25
2022-12-17T16:05:03.085Z,1006.22
2022-12-17T16:10:05.521Z,1006.2
2022-12-17T16:15:08.226Z,1006.15
2022-12-17T16:20:03.373Z,1006.15
2022-12-17T16:25:03.076Z,1006.04
2022-12-17T16:30:03.484Z,1005.96
2022-12-17T16:35:03.425Z,1005.97
2022-12-17T16:40:03.491Z,1005.78
2022-12-17T16:45:03.105Z,1005.82
2022-12-17T16:50:03.361Z,1005.72
2022-12-17T16:55:03.117Z,1005.69
2022-12-17T17:00:03.433Z,1005.57
2022-12-17T17:05:03.170Z,1005.53
2022-12-17T17:10:03.415Z,1005.5
2022-12-17T17:15:03.198Z,1005.48
2022-12-17T17:20:03.396Z,1005.4
2022-12-17T17:25:03.130Z,1005.32
2022-12-17T17:30:04.142Z,1005.09
2022-12-17T17:35:03.172Z,1005.03
2022-12-17T17:40:03.387Z,1005.06
2022-12-17T17:45:03.209Z,1004.98
2022-12-17T17:50:03.439Z,1004.91
2022-12-17T17:55:07.582Z,1004.82
2022-12-17T18:00:07.586Z,1004.81
2022-12-17T18:05:03.330Z,1004.76
2022-12-17T18:10:03.484Z,1004.69
2022-12-17T18:15:18.992Z,1004.61
2022-12-17T18:20:03.343Z,1004.49
2022-12-17T18:25:03.100Z,1004.38
2022-12-17T18:30:03.367Z,1004.39
2022-12-17T18:35:03.158Z,1004.34
2022-12-17T18:40:03.753Z,1004.26
2022-12-17T18:45:03.134Z,1004.16
2022-12-17T18:50:03.546Z,1004.02
2022-12-17T18:55:03.179Z,1003.94
2022-12-17T19:00:03.362Z,1003.87
2022-12-17T19:05:04.221Z,1003.89
2022-12-17T19:10:04.452Z,1003.84
2022-12-17T19:15:03.209Z,1003.78
2022-12-17T19:20:03.437Z,1003.8
2022-12-17T19:25:03.135Z,1003.77
2022-12-17T19:30:03.462Z,1003.68
2022-12-17T19:35:03.188Z,1003.67
2022-12-17T19:40:03.680Z,1003.56
2022-12-17T19:45:03.202Z,1003.51
2022-12-17T19:50:04.716Z,1003.46
2022-12-17T19:55:04.936Z,1003.45
2022-12-17T20:00:03.420Z,1003.35
2022-12-17T20:15:03.136Z,1003.35
2022-12-17T20:20:03.322Z,1003.29
2022-12-17T20:25:04.202Z,1003.24
2022-12-17T20:30:03.378Z,1003.16
2022-12-17T20:35:03.089Z,1003.14
2022-12-17T20:40:03.457Z,1003.14
2022-12-17T20:45:03.249Z,1003.17
2022-12-17T20:50:03.346Z,1003.24
2022-12-17T20:55:03.268Z,1003.27
2022-12-17T21:00:03.363Z,1003.41
2022-12-17T21:05:03.804Z,1003.48
2022-12-17T21:10:03.440Z,1003.58
2022-12-17T21:15:03.140Z,1003.51
2022-12-17T21:20:06.393Z,1003.54
2022-12-17T21:25:03.120Z,1003.67
2022-12-17T21:30:07.499Z,1003.7
2022-12-17T21:35:04.112Z,1003.73
2022-12-17T21:40:04.422Z,1003.79
2022-12-17T21:45:03.204Z,1003.83
2022-12-17T21:50:03.377Z,1003.93
2022-12-17T21:55:03.149Z,1004.09
2022-12-17T22:00:03.381Z,1004.17
2022-12-17T22:05:03.280Z,1004.18
2022-12-17T22:10:25.749Z,1004.21
2022-12-17T22:15:03.197Z,1004.36
2022-12-17T22:20:03.385Z,1004.31
2022-12-17T22:25:07.971Z,1004.45
2022-12-17T22:30:03.339Z,1004.5
2022-12-17T22:35:42.454Z,1004.4
2022-12-17T22:41:24.632Z,1004.43
2022-12-17T22:45:08.879Z,1004.46
2022-12-17T22:50:03.543Z,1004.49
2022-12-17T22:55:03.120Z,1004.59
2022-12-17T23:00:03.323Z,1004.66
2022-12-17T23:05:03.155Z,1004.74
2022-12-17T23:10:03.412Z,1004.72
2022-12-17T23:15:14.821Z,1004.68
2022-12-17T23:20:03.279Z,1004.66
2022-12-17T23:25:03.121Z,1004.8
2022-12-17T23:30:03.407Z,1005.05
2022-12-17T23:35:03.217Z,1005.1
2022-12-17T23:40:03.426Z,1005.13
2022-12-17T23:45:03.147Z,1005.16
2022-12-17T23:50:04.520Z,1005.24
2022-12-17T23:55:03.110Z,1005.32
